Ashwaubenon, Wisconsin
Current Conditions -  °F | °C
As of 1:14 PM on Friday 28 Nov 2014 (Local Time) from KGRB Reporting Station
Light Snow Light Snow  
Wind Chill: 13°   Ceiling: 3100
Heat Index: 21°   Visibility: 2.5mi
Dew Point: 16°   Wind: 6mph
Humidity: 81%   Direction: 120°ESE
Pressure: 30.03"   Gusts: NA
Location:  44.48°N, 88.07°W
Report Text: KGRB 281914Z 12005KT 2 1/2SM -SN BKN031 BKN060 OVC080 M06/M09 A3003 RMK AO2 P0001 T10611089
Loading
Personal Weather Stations






























Interactive Weather Map New forecast layout! Learn more

10-Day Weather Forecast

Advertisements
Track Severe Weather on mobile